Date,TemperatureHighF,TemperatureAvgF,TemperatureLowF,DewpointHighF,DewpointAvgF,DewpointLowF,HumidityHigh,HumidityAvg,HumidityLow,PressureMaxIn,PressureMinIn,WindSpeedMaxMPH,WindSpeedAvgMPH,GustSpeedMaxMPH,PrecipitationSumIn
2014-1-1,82,78,74,75,73,70,94,85,78,30.13,30.01,14,9,21,0.00
2014-1-2,82,79,76,74,72,70,92,79,70,30.02,29.90,10,6,21,0.00
2014-1-3,76,68,64,74,59,44,92,74,42,30.14,29.91,16,9,27,0.00
2014-1-4,72,70,65,70,68,60,97,93,84,30.11,29.99,12,7,19,0.55
2014-1-5,82,76,70,74,71,67,98,86,72,30.05,29.89,16,5,29,0.18
2014-1-6,83,74,62,77,69,45,98,87,53,30.16,29.97,22,6,37,0.00
2014-1-7,62,58,54,54,46,34,91,66,43,30.27,30.15,18,12,34,0.00
2014-1-8,69,64,57,69,63,54,99,96,90,30.21,30.09,15,10,26,0.05
2014-1-9,75,71,69,73,70,69,99,97,92,30.18,30.07,14,6,24,0.02
2014-1-10,80,74,69,75,72,69,99,92,80,30.13,30.01,9,5,14,0.00
2014-1-11,82,78,74,75,73,72,96,87,75,30.10,29.99,8,4,14,0.00
2014-1-12,74,73,71,73,69,65,98,89,77,30.14,30.02,10,4,20,0.00
2014-1-13,80,76,72,74,72,68,96,86,79,30.11,30.01,10,5,17,0.00
2014-1-14,82,78,75,73,72,69,92,82,70,30.04,29.95,9,5,14,0.00
2014-1-15,76,69,67,73,64,58,95,84,70,30.05,29.93,16,9,23,0.09
2014-1-16,69,62,57,61,52,46,80,71,61,30.15,29.95,20,12,27,0.00
2014-1-17,61,58,53,49,43,34,74,60,38,30.20,30.09,10,6,16,0.00
2014-1-18,69,62,58,57,51,42,77,66,54,30.21,30.13,10,4,17,0.00
2014-1-19,66,61,55,58,52,47,88,74,61,30.26,30.16,10,4,14,0.00
2014-1-20,77,69,61,62,58,54,88,69,52,30.17,30.06,6,2,9,0.00
2014-1-21,75,68,64,66,63,59,96,83,69,30.06,29.92,12,4,17,0.12
2014-1-22,68,63,58,66,55,46,93,74,63,30.16,29.92,18,10,24,0.02
2014-1-23,67,61,56,60,52,43,83,72,50,30.25,30.13,11,7,17,0.00
2014-1-24,69,64,60,60,57,54,89,77,61,30.32,30.17,15,9,25,0.00
2014-1-25,74,66,60,65,61,56,95,85,70,30.17,30.04,12,5,21,0.00
2014-1-26,77,69,62,68,64,61,97,86,71,30.07,29.97,8,4,11,0.00
2014-1-27,81,74,69,71,68,65,95,83,71,30.03,29.95,7,3,11,0.00
2014-1-28,78,73,68,73,70,67,99,91,80,30.07,29.96,9,4,12,0.00
2014-1-29,83,74,67,76,71,65,97,90,74,30.04,29.95,13,5,20,1.21
2014-1-30,69,67,65,68,66,64,99,98,93,30.08,29.99,12,7,21,0.28
2014-1-31,81,75,68,77,72,68,99,92,79,30.05,29.96,11,5,15,0.12
2014-2-1,80,76,71,75,72,70,97,88,76,30.11,30.02,12,6,19,0.02
2014-2-2,79,77,75,74,72,69,91,84,75,30.11,30.00,15,11,21,0.00
2014-2-3,82,78,76,75,74,73,92,87,79,30.08,29.99,12,8,15,0.00
2014-2-4,80,78,76,74,74,72,93,86,80,30.07,29.99,16,12,21,0.00
2014-2-5,82,79,76,75,74,72,90,84,77,30.08,29.99,12,7,20,0.00
2014-2-6,81,78,76,74,72,67,91,81,72,30.09,30.00,9,6,13,0.00
2014-2-7,81,77,73,75,72,68,94,83,76,30.09,30.01,9,5,13,0.00
2014-2-8,83,78,72,74,72,70,96,84,73,30.07,29.98,10,5,16,0.00
2014-2-9,82,74,69,72,69,66,95,87,60,30.07,29.97,13,6,17,0.00
2014-2-10,82,74,70,72,70,68,95,86,70,30.07,29.97,7,4,11,0.00
2014-2-11,80,74,70,72,69,67,93,85,71,30.06,29.98,7,3,10,0.00
2014-2-12,81,77,68,74,71,67,95,82,74,30.01,29.81,30,7,40,0.31
2014-2-13,76,71,65,71,64,54,95,79,68,29.98,29.77,23,15,30,0.00
2014-2-14,66,64,63,61,56,52,84,75,68,30.06,29.94,9,4,14,0.00
2014-2-15,76,70,65,66,63,59,91,78,58,30.13,29.96,17,6,21,0.00
2014-2-16,72,67,62,60,50,31,81,57,22,30.18,30.07,10,5,16,0.00
2014-2-17,76,70,64,65,62,58,89,75,65,30.18,30.10,15,8,20,0.00
2014-2-18,77,73,69,67,65,62,86,75,66,30.19,30.10,15,9,20,0.00
2014-2-19,78,75,73,70,67,65,87,76,67,30.13,30.04,14,11,19,0.00
2014-2-20,80,77,73,74,72,70,93,86,80,30.11,30.02,17,11,22,0.00
2014-2-21,82,78,76,75,74,72,92,87,78,30.08,29.98,15,8,21,0.00
2014-2-22,81,78,75,75,73,71,94,85,74,30.09,29.99,8,5,12,0.00
2014-2-23,81,78,75,74,73,72,91,85,76,30.07,29.98,8,5,12,0.00
2014-2-24,83,77,74,76,72,69,95,84,65,30.04,29.97,10,4,14,0.00
2014-2-25,84,76,72,74,70,66,94,84,60,30.04,29.93,10,5,14,0.00
2014-2-26,82,76,71,73,71,69,94,84,73,29.97,29.79,10,5,17,0.00
2014-2-27,78,74,68,72,69,65,90,84,80,29.92,29.80,18,11,28,0.02
2014-2-28,74,70,67,67,65,62,93,83,74,30.07,29.88,10,5,14,0.06
2014-3-1,76,70,66,66,60,51,85,70,44,30.15,30.03,10,5,14,0.00
2014-3-2,78,75,72,66,64,62,80,70,61,30.16,30.05,15,9,19,0.00
2014-3-3,79,75,70,70,65,63,90,72,61,30.06,29.98,10,4,13,0.00
2014-3-4,78,75,70,71,68,65,90,80,67,30.03,29.95,10,5,14,0.00
2014-3-5,82,78,73,73,70,66,86,77,69,30.01,29.91,12,5,16,0.03
2014-3-6,82,75,69,75,70,66,93,86,75,29.97,29.83,26,9,34,0.63
2014-3-7,77,74,69,72,65,60,91,76,60,30.01,29.80,25,15,32,0.12
2014-3-8,69,67,64,61,58,56,86,75,65,30.12,29.98,9,5,15,0.00
2014-3-9,75,71,65,65,63,60,87,77,66,30.15,30.06,8,4,12,0.00
2014-3-10,77,73,70,68,65,62,86,75,62,30.11,29.98,8,4,12,0.00
2014-3-11,79,75,70,70,66,63,86,75,69,30.02,29.85,9,5,14,0.00
2014-3-12,83,78,73,74,71,68,91,78,65,29.90,29.80,23,8,32,0.17
2014-3-13,75,72,70,71,63,49,91,72,43,30.11,29.84,22,12,32,0.02
2014-3-14,74,70,64,61,58,50,73,65,51,30.20,30.09,21,13,26,0.00
2014-3-15,77,74,70,65,63,59,82,69,61,30.13,30.00,16,10,21,0.00
2014-3-16,80,76,74,71,68,62,83,74,65,30.01,29.78,17,12,23,0.00
2014-3-17,82,79,76,76,74,71,90,84,78,29.83,29.72,15,9,26,0.00
2014-3-18,80,75,70,75,69,62,92,82,72,30.01,29.74,22,10,31,0.00
2014-3-19,80,74,69,70,66,62,87,77,65,30.05,29.95,9,5,13,0.00
2014-3-20,76,73,70,69,66,61,90,79,63,30.04,29.97,14,8,19,0.00
2014-3-21,78,72,66,66,63,61,83,74,61,30.05,29.97,10,5,14,0.00
2014-3-22,83,76,70,74,69,64,91,80,71,30.08,29.99,7,3,11,0.00
2014-3-23,85,79,74,77,74,71,95,84,68,30.06,29.98,14,5,17,0.00
2014-3-24,82,77,75,74,73,71,93,86,73,30.03,29.88,10,5,13,0.00
2014-3-25,80,74,69,74,70,60,94,85,71,30.02,29.84,21,12,28,1.11
2014-3-26,70,67,62,61,53,42,73,60,45,30.20,30.02,20,13,28,0.00
2014-3-27,76,73,69,67,62,57,78,69,63,30.23,30.09,18,15,25,0.00
2014-3-28,80,77,74,74,70,65,91,81,72,30.15,29.99,18,13,24,0.00
2014-3-29,82,78,71,77,74,68,93,88,81,30.07,29.93,21,8,31,0.04
2014-3-30,76,73,68,73,64,54,92,74,49,30.07,29.91,16,10,24,0.02
2014-3-31,76,71,66,66,60,48,76,68,44,30.11,30.02,14,8,18,0.00
2014-4-1,78,74,72,66,64,63,76,71,64,30.13,30.05,15,11,21,0.00
2014-4-2,77,75,73,65,64,62,76,69,62,30.16,30.07,16,12,23,0.00
2014-4-3,79,76,73,67,65,63,74,69,63,30.11,30.01,15,12,21,0.00
2014-4-4,81,77,75,71,68,64,81,73,68,30.03,29.97,15,9,20,0.00
2014-4-5,81,78,75,71,70,67,82,75,66,30.02,29.95,9,6,12,0.00
2014-4-6,81,78,75,73,70,66,85,77,68,30.02,29.89,13,9,18,0.00
2014-4-7,83,80,78,77,75,73,91,84,74,29.96,29.83,14,11,21,0.00
2014-4-8,86,78,67,80,74,64,94,86,75,29.94,29.78,29,11,38,0.43
2014-4-9,75,72,68,67,59,55,82,65,51,30.14,29.90,21,15,28,0.00
2014-4-10,77,72,67,62,59,57,76,65,51,30.20,30.10,21,12,28,0.00
2014-4-11,78,75,72,68,64,58,79,68,52,30.18,30.07,14,9,19,0.00
2014-4-12,80,76,72,73,68,64,94,78,61,30.12,30.02,17,10,24,0.00
2014-4-13,80,77,73,72,70,68,92,79,67,30.06,29.94,12,8,17,0.00
2014-4-14,83,79,77,75,73,72,87,82,74,29.97,29.87,13,8,18,0.00
2014-4-15,85,81,78,77,75,73,89,82,75,29.92,29.85,14,9,18,0.00
2014-4-16,82,78,74,75,73,71,92,83,71,30.03,29.91,16,8,23,0.00
2014-4-17,84,80,78,76,74,72,90,82,76,30.09,29.98,19,13,26,0.00
2014-4-18,84,81,77,75,74,63,89,79,63,30.12,29.93,17,12,23,0.00
2014-4-19,82,78,73,77,72,64,89,82,71,30.01,29.90,18,12,22,0.08
2014-4-20,76,73,71,64,62,60,74,68,61,30.04,29.97,16,11,20,0.00
2014-4-21,76,73,70,67,65,62,84,76,67,30.03,29.93,14,8,21,0.00
2014-4-22,81,74,71,71,68,66,90,80,68,29.97,29.88,14,5,19,0.00
2014-4-23,80,74,70,68,65,64,86,74,60,29.98,29.89,8,4,13,0.00
2014-4-24,80,76,71,72,69,64,88,78,71,30.01,29.92,8,4,11,0.00
2014-4-25,85,80,76,73,72,68,89,77,58,30.01,29.91,9,5,14,0.00
2014-4-26,85,80,74,71,69,65,83,70,53,30.01,29.93,9,4,14,0.00
2014-4-27,84,81,78,77,74,69,85,79,72,30.00,29.90,17,10,21,0.00
2014-4-28,84,81,79,78,75,73,88,81,76,29.96,29.85,15,11,21,0.00
2014-4-29,84,81,79,78,75,71,88,81,73,29.98,29.85,20,10,23,0.00
2014-4-30,85,82,80,78,76,73,89,82,69,30.03,29.93,17,12,24,0.00
2014-5-1,85,82,81,77,76,74,88,80,73,30.02,29.93,15,10,23,0.00
2014-5-2,84,82,80,74,73,70,82,75,66,29.97,29.86,14,8,21,0.00
2014-5-3,87,81,74,78,75,70,91,82,70,30.01,29.91,22,8,27,0.32
2014-5-4,82,78,76,73,66,58,85,68,46,30.07,29.97,14,9,22,0.00
2014-5-5,82,78,74,69,66,60,73,65,50,30.05,29.96,12,8,17,0.00
2014-5-6,82,80,76,71,68,63,74,67,53,30.02,29.95,14,8,19,0.00
2014-5-7,84,81,79,74,70,65,77,70,59,30.08,29.96,18,13,24,0.00
2014-5-8,83,81,80,73,71,70,78,72,67,30.13,30.03,21,17,27,0.00
2014-5-9,83,81,79,74,71,69,81,72,66,30.14,30.03,20,16,26,0.00
2014-5-10,84,81,79,75,73,69,82,75,67,30.12,30.00,20,14,27,0.00
2014-5-11,84,81,80,74,72,67,82,73,63,30.10,30.00,17,14,24,0.00
2014-5-12,83,81,79,74,71,69,83,73,65,30.07,29.98,22,16,29,0.00
2014-5-13,83,80,76,76,74,72,92,82,76,29.99,29.91,22,17,30,0.21
2014-5-14,83,80,77,77,75,73,92,83,79,30.01,29.91,20,14,27,0.77
2014-5-15,86,81,76,78,76,72,92,82,73,30.01,29.92,14,7,19,1.29
2014-5-16,79,76,72,75,70,50,97,83,42,30.04,29.94,15,7,27,2.53
2014-5-17,81,76,73,68,63,58,71,64,55,30.08,29.99,22,15,29,0.00
2014-5-18,80,77,73,68,66,64,80,70,62,30.07,30.00,20,13,27,0.00
2014-5-19,82,78,74,70,68,65,83,71,61,30.09,30.03,20,13,27,0.00
2014-5-20,81,78,76,69,68,66,76,70,61,30.13,30.04,22,16,30,0.00
2014-5-21,81,78,76,69,66,64,75,67,57,30.13,30.07,17,12,22,0.00
2014-5-22,82,78,75,71,69,66,87,73,62,30.13,30.03,12,8,19,0.00
2014-5-23,84,80,74,71,69,60,86,70,44,30.11,30.03,8,4,11,0.00
2014-5-24,85,80,77,73,71,69,80,73,64,30.09,30.01,10,4,13,0.00
2014-5-25,85,81,78,75,74,72,85,77,68,30.10,30.00,11,7,16,0.00
2014-5-26,85,82,80,76,74,73,85,78,71,30.15,30.06,15,11,21,0.00
2014-5-27,84,82,80,76,74,71,83,79,71,30.12,30.02,14,11,19,0.00
2014-5-28,85,82,78,77,75,72,84,80,71,30.07,29.98,12,9,17,0.02
2014-5-29,85,82,80,76,75,72,86,78,71,30.03,29.93,12,8,17,0.00
2014-5-30,84,82,77,77,75,63,83,78,63,30.17,29.92,14,9,19,0.72
2014-5-31,85,83,81,77,75,74,83,78,72,29.97,29.90,14,10,18,0.00
2014-6-1,86,82,81,77,75,73,82,78,71,29.98,29.90,15,10,20,0.00
2014-6-2,84,82,79,78,75,73,89,82,75,29.99,29.91,20,14,27,0.00
2014-6-3,81,78,74,76,74,70,96,86,74,29.98,29.91,17,11,24,0.91
2014-6-4,83,80,78,74,72,71,84,78,70,29.94,29.86,10,6,14,0.00
2014-6-5,84,80,76,76,74,72,94,81,68,29.93,29.84,12,8,16,0.25
2014-6-6,84,81,79,77,75,73,87,82,74,29.95,29.88,10,6,14,0.00
2014-6-7,88,83,79,78,76,74,89,79,68,29.99,29.91,9,3,13,0.08
2014-6-8,87,83,79,78,75,70,86,77,60,30.00,29.89,8,3,12,0.28
2014-6-9,88,83,78,77,75,72,86,77,64,29.97,29.87,12,5,18,0.36
2014-6-10,86,83,80,78,76,74,85,79,68,30.00,29.92,9,5,14,0.00
2014-6-11,87,84,80,78,75,72,88,76,64,29.99,29.89,10,4,14,0.00
2014-6-12,86,81,74,78,74,71,92,80,67,30.03,29.92,19,6,28,0.09
2014-6-13,86,84,81,78,76,74,84,79,71,30.01,29.94,11,6,16,0.00
2014-6-14,87,84,82,79,77,75,84,79,70,30.04,29.95,11,8,15,0.00
2014-6-15,87,84,81,78,76,70,84,77,68,30.07,29.95,16,11,21,0.00
2014-6-16,86,84,81,77,76,72,87,76,64,30.09,30.00,16,11,21,0.09
2014-6-17,82,79,73,76,74,70,95,85,76,30.11,29.98,20,9,27,2.15
2014-6-18,85,81,75,76,75,71,92,81,72,30.07,29.98,16,8,24,0.25
2014-6-19,86,83,78,77,74,70,86,75,61,30.08,30.00,14,6,21,0.00
2014-6-20,86,82,77,78,75,69,89,80,61,30.04,29.98,17,5,21,0.23
2014-6-21,89,83,77,78,75,71,88,77,61,30.01,29.93,16,2,22,0.09
2014-6-22,90,84,80,76,74,73,82,72,62,29.99,29.90,9,4,13,0.00
2014-6-23,91,85,81,78,76,72,82,74,58,30.07,29.93,8,4,14,0.00
2014-6-24,89,86,82,79,77,73,84,76,61,30.10,30.03,10,5,16,0.00
2014-6-25,88,85,82,79,77,74,86,77,65,30.09,30.00,11,6,15,0.00
2014-6-26,88,85,82,80,77,74,89,77,67,30.06,29.95,14,7,18,0.00
2014-6-27,88,83,77,77,75,68,88,78,65,30.07,29.96,18,4,28,0.09
2014-6-28,90,84,77,78,76,68,87,77,51,30.11,30.01,11,5,18,0.15
2014-6-29,90,84,76,78,76,70,90,76,63,30.10,30.01,21,5,33,0.30
2014-6-30,88,83,78,79,75,72,91,78,65,30.04,29.89,19,7,31,0.00
2014-7-1,88,84,80,79,77,74,88,79,67,29.93,29.86,14,6,17,0.00
2014-7-2,90,86,82,80,78,73,86,76,66,29.99,29.86,11,6,17,0.00
2014-7-3,91,86,83,79,77,73,84,75,62,30.08,29.96,8,5,14,0.00
2014-7-4,89,86,83,79,77,74,85,76,66,30.10,30.03,7,4,11,0.00
2014-7-5,87,85,83,78,76,72,82,76,63,30.10,30.01,11,6,17,0.00
2014-7-6,88,85,83,78,76,72,83,75,63,30.05,29.97,10,7,15,0.00
2014-7-7,88,85,80,78,76,72,84,76,64,30.06,29.97,13,8,17,0.00
2014-7-8,89,85,82,79,76,74,86,75,66,30.10,30.00,12,4,17,0.00
2014-7-9,91,85,75,79,76,69,85,76,60,30.10,30.01,20,5,31,1.23
2014-7-10,88,84,78,78,76,73,89,77,62,30.07,30.00,13,7,20,0.06
2014-7-11,88,85,80,78,76,73,87,75,62,30.08,29.98,13,10,17,0.00
2014-7-12,88,84,76,78,77,73,92,77,67,30.07,30.00,18,9,27,0.08
2014-7-13,88,84,80,78,76,73,87,77,68,30.05,29.94,21,7,27,0.02
2014-7-14,90,86,83,78,76,75,82,75,67,30.06,29.98,10,5,14,0.00
2014-7-15,89,86,83,78,76,74,81,73,62,30.02,29.93,8,4,11,0.00
2014-7-16,91,86,78,78,76,73,89,74,62,29.99,29.92,14,5,17,0.21
2014-7-17,90,86,84,77,76,73,78,70,60,30.01,29.93,11,5,16,0.00
2014-7-18,91,87,84,78,76,73,80,70,59,30.04,29.97,11,4,16,0.00
2014-7-19,91,86,78,80,77,71,86,76,63,30.04,29.95,12,4,23,0.17
2014-7-20,90,85,75,79,77,72,92,77,65,30.03,29.94,18,4,29,2.99
2014-7-21,89,84,77,79,77,74,93,80,70,30.01,29.93,9,4,13,0.09
2014-7-22,87,84,78,79,76,73,90,78,68,30.04,29.93,13,4,17,0.25
2014-7-23,88,85,80,80,78,74,89,80,69,30.04,29.97,12,4,18,0.60
2014-7-24,88,86,79,79,77,73,84,76,66,30.03,29.95,13,6,18,0.70
2014-7-25,89,87,84,80,78,76,82,76,68,30.06,29.97,10,6,13,0.00
2014-7-26,89,86,85,80,76,74,82,71,62,30.07,29.98,12,7,16,0.00
2014-7-27,90,86,84,77,75,72,77,68,58,30.08,30.00,10,5,16,0.00
2014-7-28,92,86,83,80,77,74,85,75,63,30.06,29.99,8,3,12,0.08
2014-7-29,91,87,83,79,76,70,83,71,53,30.01,29.94,12,6,18,0.00
2014-7-30,92,87,80,79,76,73,80,71,60,29.98,29.91,9,6,15,0.00
2014-7-31,92,86,81,78,75,72,86,70,53,29.96,29.90,11,4,15,0.02
2014-8-1,91,87,85,77,76,73,75,69,59,29.95,29.86,10,5,14,0.00
2014-8-2,90,84,76,80,77,73,93,80,66,29.94,29.84,18,4,30,2.82
2014-8-3,84,81,73,79,77,71,95,88,79,29.94,29.82,15,4,21,6.70
2014-8-4,87,81,74,78,75,72,96,83,69,30.03,29.85,16,6,24,0.52
2014-8-5,91,84,78,79,76,71,93,77,63,30.06,29.93,14,4,21,0.28
2014-8-6,90,86,83,80,77,75,84,76,66,30.03,29.96,13,3,17,0.00
2014-8-7,88,84,80,81,78,74,88,81,70,29.99,29.90,10,2,17,0.38
2014-8-8,89,85,82,80,77,74,88,77,65,30.06,29.91,10,5,14,0.06
2014-8-9,91,86,83,78,76,73,83,72,59,30.10,30.00,7,4,10,0.00
2014-8-10,90,87,84,79,76,68,81,72,62,30.08,30.00,12,6,17,0.00
2014-8-11,89,86,82,78,76,68,78,71,61,30.08,29.99,14,6,23,0.00
2014-8-12,90,86,84,77,76,73,79,71,60,30.05,29.97,10,6,16,0.00
2014-8-13,91,87,84,78,76,74,77,70,62,30.06,29.99,7,5,12,0.00
2014-8-14,93,87,83,78,77,73,80,71,56,30.07,29.99,15,4,23,0.04
2014-8-15,93,87,80,79,76,69,82,70,56,30.10,29.99,13,4,23,0.00
2014-8-16,92,87,80,79,77,72,82,72,63,30.11,29.98,13,5,18,0.00
2014-8-17,91,88,86,80,77,73,81,72,62,30.10,30.03,15,9,20,0.00
2014-8-18,90,87,85,80,78,75,81,74,62,30.08,29.97,12,7,15,0.00
2014-8-19,91,86,82,80,77,74,85,74,64,30.05,29.95,11,4,18,0.00
2014-8-20,91,87,81,79,77,74,83,72,59,30.09,29.99,11,5,15,0.12
2014-8-21,90,87,83,80,78,75,85,74,66,30.11,30.02,11,7,16,0.00
2014-8-22,90,87,82,80,76,70,86,71,53,30.10,29.97,13,7,18,0.13
2014-8-23,92,87,83,78,75,69,82,68,50,29.99,29.85,13,6,16,0.00
2014-8-24,91,87,79,78,75,70,87,69,52,29.89,29.75,19,5,25,0.00
2014-8-25,90,86,80,80,78,75,91,79,63,29.80,29.72,16,6,23,0.00
2014-8-26,89,84,80,80,78,74,91,80,62,29.88,29.75,18,11,24,0.21
2014-8-27,89,85,78,80,77,74,94,76,64,29.99,29.85,17,11,28,0.43
2014-8-28,88,85,78,80,78,75,94,79,66,30.01,29.92,12,6,19,0.01
2014-8-29,90,87,85,80,79,78,82,77,69,30.07,29.97,15,10,21,0.00
2014-8-30,89,87,84,79,77,70,81,74,64,30.09,29.99,20,14,25,0.00
2014-8-31,88,86,80,79,77,75,88,76,69,30.09,30.02,20,12,30,0.16
2014-9-1,89,86,83,79,77,73,83,75,66,30.09,30.00,16,10,21,0.01
2014-9-2,88,84,79,78,75,72,86,75,63,30.06,29.96,21,9,30,0.09
2014-9-3,87,84,80,77,74,71,81,74,65,30.04,29.94,17,8,24,0.00
2014-9-4,88,84,79,79,76,72,85,78,69,30.11,30.00,16,6,21,0.16
2014-9-5,89,86,83,80,78,75,85,78,70,30.10,29.99,11,8,16,0.00
2014-9-6,89,86,82,80,78,75,88,77,67,30.05,29.92,15,8,22,0.10
2014-9-7,88,84,80,79,77,75,93,78,68,30.02,29.91,22,9,35,0.06
2014-9-8,88,85,81,79,76,73,83,75,67,30.04,29.95,17,10,27,0.03
2014-9-9,88,83,77,78,75,71,88,77,65,30.03,29.93,20,9,31,0.37
2014-9-10,88,83,79,78,76,72,90,79,68,30.01,29.90,13,6,19,0.18
2014-9-11,88,82,77,79,75,72,91,79,64,30.02,29.94,11,3,17,0.55
2014-9-12,82,79,74,78,74,71,95,86,71,30.03,29.90,12,4,20,0.71
2014-9-13,86,81,76,77,75,72,94,82,71,30.07,29.93,19,9,27,1.18
2014-9-14,84,80,73,79,76,71,95,87,75,30.16,30.02,23,6,36,1.54
2014-9-15,87,84,81,80,77,75,87,80,67,30.14,30.06,12,8,17,0.00
2014-9-16,88,84,81,78,76,73,88,79,63,30.11,29.97,9,5,16,0.00
2014-9-17,90,84,80,79,76,73,88,76,60,30.02,29.90,7,2,14,0.00
2014-9-18,89,83,78,78,76,71,87,78,65,29.96,29.88,10,3,19,0.04
2014-9-19,87,83,81,77,76,74,84,78,70,29.97,29.89,5,2,8,0.00
2014-9-20,89,83,79,79,76,74,90,81,69,29.99,29.88,13,5,18,0.00
2014-9-21,89,84,80,78,76,74,88,78,64,30.03,29.92,6,3,9,0.00
2014-9-22,87,84,80,79,76,72,86,78,65,30.05,29.92,17,6,24,0.00
2014-9-23,83,80,75,78,75,69,92,84,74,30.03,29.90,20,6,30,0.32
2014-9-24,86,81,76,78,76,74,95,84,68,30.03,29.93,15,8,20,0.83
2014-9-25,87,83,81,80,78,76,89,85,74,30.02,29.91,16,10,20,0.00
2014-9-26,87,84,81,80,78,75,89,82,72,29.97,29.89,13,9,20,0.00
2014-9-27,87,85,83,79,78,76,84,80,72,29.96,29.89,14,10,19,0.00
2014-9-28,88,85,83,79,77,75,85,79,71,29.97,29.88,14,8,17,0.00
2014-9-29,89,85,82,80,77,76,86,78,69,29.93,29.83,9,5,12,0.01
2014-9-30,90,85,82,78,76,73,84,75,61,29.91,29.83,12,4,14,0.00
2014-10-1,92,85,82,80,77,75,84,79,65,30.00,29.87,13,3,17,0.00
2014-10-2,91,85,82,80,78,74,88,79,66,30.05,29.95,15,2,20,0.01
2014-10-3,90,85,82,79,77,76,88,77,64,30.05,29.96,10,4,14,0.00
2014-10-4,88,85,78,79,76,73,86,76,65,30.01,29.85,21,10,26,0.04
2014-10-5,81,79,76,76,68,63,91,71,59,29.99,29.89,13,6,21,0.04
2014-10-6,86,81,75,76,71,65,81,72,61,30.03,29.95,12,6,17,0.00
2014-10-7,87,84,82,78,76,74,84,78,70,30.07,29.96,15,7,21,0.00
2014-10-8,86,83,81,79,77,75,90,81,70,30.09,29.99,10,7,15,0.00
2014-10-9,86,83,81,78,76,70,89,79,65,30.04,29.94,17,11,24,0.00
2014-10-10,86,83,80,77,74,71,86,73,64,30.01,29.91,17,12,23,0.00
2014-10-11,86,83,80,78,76,74,84,79,70,29.99,29.92,16,11,20,0.00
2014-10-12,86,83,76,79,77,73,90,82,72,30.02,29.94,16,10,24,0.09
2014-10-13,86,82,79,79,77,74,90,84,77,30.03,29.97,18,12,29,0.37
2014-10-14,87,84,77,79,78,72,89,82,73,30.01,29.92,15,9,22,0.04
2014-10-15,90,84,80,80,77,76,92,81,65,29.99,29.90,13,5,15,0.25
2014-10-16,82,80,77,76,72,66,87,76,62,29.99,29.89,13,7,19,0.00
2014-10-17,80,77,75,70,67,65,83,72,64,30.01,29.91,9,5,15,0.00
2014-10-18,86,79,74,70,68,65,84,69,51,29.99,29.91,7,2,11,0.00
2014-10-19,84,79,74,72,67,62,80,68,52,30.00,29.93,10,4,15,0.00
2014-10-20,86,80,75,77,74,71,95,83,71,30.00,29.91,16,6,23,0.75
2014-10-21,81,76,72,76,74,69,96,91,84,29.99,29.89,24,3,30,0.96
2014-10-22,78,76,72,77,74,70,95,93,91,29.96,29.89,17,4,30,1.42
2014-10-23,80,76,74,76,74,71,99,94,86,29.93,29.81,17,10,23,2.86
2014-10-24,80,77,75,76,73,70,98,88,77,29.87,29.78,17,10,27,0.19
2014-10-25,80,76,74,71,68,64,84,75,61,29.95,29.84,13,9,21,0.00
2014-10-26,80,76,72,70,67,63,86,74,64,30.01,29.90,12,6,17,0.00
2014-10-27,81,77,73,72,68,63,86,74,57,30.07,29.98,15,7,21,0.00
2014-10-28,82,79,76,74,72,70,91,80,69,30.11,30.03,17,9,24,0.00
2014-10-29,84,80,76,74,72,70,87,77,67,30.07,29.97,11,6,14,0.00
2014-10-30,83,79,75,74,70,66,91,75,58,29.99,29.87,6,2,9,0.00